<?xml version="1.0" encoding="UTF-8" standalone="no" ?>
<gpx xmlns="http://www.topografix.com/GPX/1/1" xmlns:xsi="http://www.w3.org/2001/XMLSchema-instance" xsi:schemaLocation="http://www.topografix.com/GPX/1/1 http://www.topografix.com/GPX/1/1/gpx.xsd" version="1.1" creator="VisuGPX - https://www.visugpx.com">
  <metadata>
    <name>Etape 4 au cœur du talou</name>
    <desc><![CDATA[19km]]></desc>
  </metadata>
  <trk>
    <name><![CDATA[TraceGPS Etape 4]]></name>
    <trkseg>
      <trkpt lat="49.6727" lon="1.28341">
        <ele>103.83</ele>
      </trkpt>
      <trkpt lat="49.67253" lon="1.28373">
        <ele>103.45</ele>
      </trkpt>
      <trkpt lat="49.67286" lon="1.28417">
        <ele>105.545418</ele>
        <time>2012-02-27T20:09:47Z</time>
      </trkpt>
      <trkpt lat="49.67293" lon="1.28444">
        <ele>106.072266</ele>
        <time>2012-02-27T20:09:55Z</time>
      </trkpt>
      <trkpt lat="49.67321" lon="1.28512">
        <ele>107.522285</ele>
        <time>2012-02-27T20:10:16Z</time>
      </trkpt>
      <trkpt lat="49.67373" lon="1.28606">
        <ele>109.7593</ele>
        <time>2012-02-27T20:10:48Z</time>
      </trkpt>
      <trkpt lat="49.67373" lon="1.28606">
        <ele>109.7593</ele>
        <time>2012-02-27T20:10:48Z</time>
      </trkpt>
      <trkpt lat="49.67509" lon="1.28849">
        <ele>115.129776</ele>
        <time>2012-02-27T20:12:11Z</time>
      </trkpt>
      <trkpt lat="49.67556" lon="1.28888">
        <ele>115.656296</ele>
        <time>2012-02-27T20:12:32Z</time>
      </trkpt>
      <trkpt lat="49.67571" lon="1.28906">
        <ele>116.541252</ele>
        <time>2012-02-27T20:12:40Z</time>
      </trkpt>
      <trkpt lat="49.67579" lon="1.28921">
        <ele>117.032059</ele>
        <time>2012-02-27T20:12:45Z</time>
      </trkpt>
      <trkpt lat="49.67591" lon="1.28974">
        <ele>119.152489</ele>
        <time>2012-02-27T20:13:00Z</time>
      </trkpt>
      <trkpt lat="49.6759" lon="1.28998">
        <ele>121.155151</ele>
        <time>2012-02-27T20:13:06Z</time>
      </trkpt>
      <trkpt lat="49.67596" lon="1.29075">
        <ele>124.900002</ele>
        <time>2012-02-27T20:13:26Z</time>
      </trkpt>
      <trkpt lat="49.67595" lon="1.29154">
        <ele>128.883438</ele>
        <time>2012-02-27T20:13:46Z</time>
      </trkpt>
      <trkpt lat="49.67602" lon="1.29217">
        <ele>132.368088</ele>
        <time>2012-02-27T20:14:03Z</time>
      </trkpt>
      <trkpt lat="49.67601" lon="1.29282">
        <ele>135.831314</ele>
        <time>2012-02-27T20:14:20Z</time>
      </trkpt>
      <trkpt lat="49.67595" lon="1.29293">
        <ele>136.884995</ele>
        <time>2012-02-27T20:14:24Z</time>
      </trkpt>
      <trkpt lat="49.67611" lon="1.29443">
        <ele>140.536499</ele>
        <time>2012-02-27T20:15:03Z</time>
      </trkpt>
      <trkpt lat="49.67667" lon="1.29591">
        <ele>137.322495</ele>
        <time>2012-02-27T20:15:47Z</time>
      </trkpt>
      <trkpt lat="49.67691" lon="1.29694">
        <ele>135.395004</ele>
        <time>2012-02-27T20:16:16Z</time>
      </trkpt>
      <trkpt lat="49.67706" lon="1.29744">
        <ele>133.876251</ele>
        <time>2012-02-27T20:16:30Z</time>
      </trkpt>
      <trkpt lat="49.6773" lon="1.29804">
        <ele>133.377563</ele>
        <time>2012-02-27T20:16:48Z</time>
      </trkpt>
      <trkpt lat="49.67811" lon="1.299">
        <ele>131.909698</ele>
        <time>2012-02-27T20:17:29Z</time>
      </trkpt>
      <trkpt lat="49.67929" lon="1.30119">
        <ele>137.430801</ele>
        <time>2012-02-27T20:18:43Z</time>
      </trkpt>
      <trkpt lat="49.68185" lon="1.30366">
        <ele>142.084396</ele>
        <time>2012-02-27T20:20:44Z</time>
      </trkpt>
      <trkpt lat="49.68205" lon="1.30395">
        <ele>142.257507</ele>
        <time>2012-02-27T20:20:55Z</time>
      </trkpt>
      <trkpt lat="49.68211" lon="1.3041">
        <ele>143.407852</ele>
        <time>2012-02-27T20:20:59Z</time>
      </trkpt>
      <trkpt lat="49.68233" lon="1.30812">
        <ele>143.877991</ele>
        <time>2012-02-27T20:22:44Z</time>
      </trkpt>
      <trkpt lat="49.68276" lon="1.31084">
        <ele>154.068893</ele>
        <time>2012-02-27T20:23:56Z</time>
      </trkpt>
      <trkpt lat="49.68279" lon="1.31121">
        <ele>154.648193</ele>
        <time>2012-02-27T20:24:06Z</time>
      </trkpt>
      <trkpt lat="49.68244" lon="1.31321">
        <ele>152.056305</ele>
        <time>2012-02-27T20:25:00Z</time>
      </trkpt>
      <trkpt lat="49.68244" lon="1.31389">
        <ele>151.288574</ele>
        <time>2012-02-27T20:25:17Z</time>
      </trkpt>
      <trkpt lat="49.68257" lon="1.31417">
        <ele>152.184998</ele>
        <time>2012-02-27T20:25:26Z</time>
      </trkpt>
      <trkpt lat="49.68287" lon="1.31455">
        <ele>153.528824</ele>
        <time>2012-02-27T20:25:42Z</time>
      </trkpt>
      <trkpt lat="49.68331" lon="1.31495">
        <ele>154.510193</ele>
        <time>2012-02-27T20:26:02Z</time>
      </trkpt>
      <trkpt lat="49.68344" lon="1.31518">
        <ele>155.70668</ele>
        <time>2012-02-27T20:26:10Z</time>
      </trkpt>
      <trkpt lat="49.68363" lon="1.31578">
        <ele>157.513153</ele>
        <time>2012-02-27T20:26:27Z</time>
      </trkpt>
      <trkpt lat="49.68367" lon="1.31618">
        <ele>158.346024</ele>
        <time>2012-02-27T20:26:38Z</time>
      </trkpt>
      <trkpt lat="49.68402" lon="1.31731">
        <ele>162.128784</ele>
        <time>2012-02-27T20:27:10Z</time>
      </trkpt>
      <trkpt lat="49.68416" lon="1.31744">
        <ele>162.972031</ele>
        <time>2012-02-27T20:27:17Z</time>
      </trkpt>
      <trkpt lat="49.68429" lon="1.31749">
        <ele>164.143539</ele>
        <time>2012-02-27T20:27:22Z</time>
      </trkpt>
      <trkpt lat="49.6846" lon="1.31749">
        <ele>170.019196</ele>
        <time>2012-02-27T20:27:35Z</time>
      </trkpt>
      <trkpt lat="49.68511" lon="1.31762">
        <ele>178.402161</ele>
        <time>2012-02-27T20:27:55Z</time>
      </trkpt>
      <trkpt lat="49.68533" lon="1.318">
        <ele>179.730759</ele>
        <time>2012-02-27T20:28:08Z</time>
      </trkpt>
      <trkpt lat="49.6862" lon="1.31893">
        <ele>193.265945</ele>
        <time>2012-02-27T20:28:51Z</time>
      </trkpt>
      <trkpt lat="49.68702" lon="1.3204">
        <ele>201.077698</ele>
        <time>2012-02-27T20:29:41Z</time>
      </trkpt>
      <trkpt lat="49.68702" lon="1.3204">
        <ele>201.077698</ele>
        <time>2012-02-27T20:29:41Z</time>
      </trkpt>
      <trkpt lat="49.68734" lon="1.32088">
        <ele>201.177505</ele>
        <time>2012-02-27T20:29:59Z</time>
      </trkpt>
      <trkpt lat="49.68821" lon="1.31951">
        <ele>204.265518</ele>
        <time>2012-02-27T20:30:49Z</time>
      </trkpt>
      <trkpt lat="49.69141" lon="1.31455">
        <ele>202.182495</ele>
      </trkpt>
      <trkpt lat="49.69165" lon="1.3151">
        <ele>203.422104</ele>
      </trkpt>
      <trkpt lat="49.69178" lon="1.31833">
        <ele>208.009262</ele>
      </trkpt>
      <trkpt lat="49.69169" lon="1.31921">
        <ele>208.654114</ele>
      </trkpt>
      <trkpt lat="49.69173" lon="1.31965">
        <ele>208.964691</ele>
      </trkpt>
      <trkpt lat="49.69223" lon="1.31992">
        <ele>208.309998</ele>
      </trkpt>
      <trkpt lat="49.69255" lon="1.31985">
        <ele>207.328659</ele>
      </trkpt>
      <trkpt lat="49.69277" lon="1.31965">
        <ele>206.197495</ele>
      </trkpt>
      <trkpt lat="49.69399" lon="1.31842">
        <ele>199.088593</ele>
      </trkpt>
      <trkpt lat="49.69519" lon="1.31649">
        <ele>200.826248</ele>
      </trkpt>
      <trkpt lat="49.69751" lon="1.31125">
        <ele>204.552002</ele>
      </trkpt>
      <trkpt lat="49.69941" lon="1.31275">
        <ele>209.159973</ele>
      </trkpt>
      <trkpt lat="49.70113" lon="1.31415">
        <ele>213.274994</ele>
      </trkpt>
      <trkpt lat="49.70287" lon="1.31555">
        <ele>215.699844</ele>
      </trkpt>
      <trkpt lat="49.70352" lon="1.3161">
        <ele>216.148743</ele>
      </trkpt>
      <trkpt lat="49.70366" lon="1.31617">
        <ele>216.0625</ele>
      </trkpt>
      <trkpt lat="49.70476" lon="1.31539">
        <ele>214.438034</ele>
      </trkpt>
      <trkpt lat="49.70511" lon="1.31609">
        <ele>214.570007</ele>
      </trkpt>
      <trkpt lat="49.70543" lon="1.31621">
        <ele>214</ele>
      </trkpt>
      <trkpt lat="49.70553" lon="1.3171">
        <ele>214.437256</ele>
      </trkpt>
      <trkpt lat="49.7058" lon="1.31764">
        <ele>214.511246</ele>
      </trkpt>
      <trkpt lat="49.70691" lon="1.31894">
        <ele>214.217804</ele>
      </trkpt>
      <trkpt lat="49.70731" lon="1.31963">
        <ele>214</ele>
      </trkpt>
      <trkpt lat="49.70752" lon="1.32024">
        <ele>213.579819</ele>
      </trkpt>
      <trkpt lat="49.70783" lon="1.32193">
        <ele>208.927505</ele>
      </trkpt>
      <trkpt lat="49.70773" lon="1.32264">
        <ele>208.960098</ele>
      </trkpt>
      <trkpt lat="49.70904" lon="1.32252">
        <ele>206.662369</ele>
      </trkpt>
      <trkpt lat="49.71033" lon="1.32238">
        <ele>203.738754</ele>
      </trkpt>
      <trkpt lat="49.71036" lon="1.32259">
        <ele>202.831818</ele>
      </trkpt>
      <trkpt lat="49.71119" lon="1.32431">
        <ele>204.974716</ele>
      </trkpt>
      <trkpt lat="49.71158" lon="1.32514">
        <ele>204.679993</ele>
      </trkpt>
      <trkpt lat="49.7117" lon="1.32555">
        <ele>204.087494</ele>
      </trkpt>
      <trkpt lat="49.71172" lon="1.32575">
        <ele>203.728745</ele>
      </trkpt>
      <trkpt lat="49.71165" lon="1.32717">
        <ele>198.623596</ele>
      </trkpt>
      <trkpt lat="49.7116" lon="1.32745">
        <ele>197.026871</ele>
      </trkpt>
      <trkpt lat="49.71146" lon="1.32778">
        <ele>195.496246</ele>
      </trkpt>
      <trkpt lat="49.71081" lon="1.32894">
        <ele>190.731247</ele>
      </trkpt>
      <trkpt lat="49.7122" lon="1.3287">
        <ele>187.047928</ele>
      </trkpt>
      <trkpt lat="49.71248" lon="1.32854">
        <ele>186.243607</ele>
      </trkpt>
      <trkpt lat="49.71244" lon="1.32897">
        <ele>186.997406</ele>
      </trkpt>
      <trkpt lat="49.71245" lon="1.32929">
        <ele>188.32312</ele>
      </trkpt>
      <trkpt lat="49.71251" lon="1.32982">
        <ele>189.985245</ele>
      </trkpt>
      <trkpt lat="49.7128" lon="1.33012">
        <ele>192.039291</ele>
      </trkpt>
      <trkpt lat="49.71327" lon="1.33098">
        <ele>202.226059</ele>
      </trkpt>
      <trkpt lat="49.71385" lon="1.33142">
        <ele>210.417572</ele>
      </trkpt>
      <trkpt lat="49.71413" lon="1.33187">
        <ele>213.690002</ele>
      </trkpt>
      <trkpt lat="49.71431" lon="1.33233">
        <ele>215.130005</ele>
      </trkpt>
      <trkpt lat="49.71435" lon="1.33316">
        <ele>217.157501</ele>
      </trkpt>
      <trkpt lat="49.71444" lon="1.33364">
        <ele>218.433746</ele>
      </trkpt>
      <trkpt lat="49.71454" lon="1.33387">
        <ele>219.242493</ele>
      </trkpt>
      <trkpt lat="49.71469" lon="1.33398">
        <ele>219.727493</ele>
      </trkpt>
      <trkpt lat="49.71499" lon="1.33366">
        <ele>219.933624</ele>
      </trkpt>
      <trkpt lat="49.71531" lon="1.33364">
        <ele>220.494217</ele>
      </trkpt>
      <trkpt lat="49.71562" lon="1.33378">
        <ele>221</ele>
      </trkpt>
      <trkpt lat="49.71577" lon="1.33435">
        <ele>221</ele>
      </trkpt>
      <trkpt lat="49.7165" lon="1.33688">
        <ele>221</ele>
      </trkpt>
      <trkpt lat="49.71654" lon="1.33717">
        <ele>221</ele>
        <time>2010-01-01T01:52:28Z</time>
      </trkpt>
      <trkpt lat="49.71669" lon="1.34027">
        <ele>221.90184</ele>
        <time>2010-01-01T01:53:49Z</time>
      </trkpt>
      <trkpt lat="49.71682" lon="1.34123">
        <ele>222</ele>
        <time>2010-01-01T01:54:14Z</time>
      </trkpt>
      <trkpt lat="49.7172" lon="1.3434">
        <ele>222.970001</ele>
        <time>2010-01-01T01:55:12Z</time>
      </trkpt>
      <trkpt lat="49.71765" lon="1.34548">
        <ele>223</ele>
        <time>2010-01-01T01:56:09Z</time>
      </trkpt>
      <trkpt lat="49.7178" lon="1.34618">
        <ele>223.001099</ele>
      </trkpt>
      <trkpt lat="49.71781" lon="1.34647">
        <ele>223.360184</ele>
      </trkpt>
      <trkpt lat="49.71806" lon="1.34718">
        <ele>223.613251</ele>
      </trkpt>
      <trkpt lat="49.71868" lon="1.34917">
        <ele>224.342499</ele>
        <time>2010-01-01T01:57:54Z</time>
      </trkpt>
      <trkpt lat="49.71882" lon="1.34974">
        <ele>225.108078</ele>
      </trkpt>
      <trkpt lat="49.7189" lon="1.35023">
        <ele>225.426804</ele>
        <time>2010-01-01T01:58:22Z</time>
      </trkpt>
      <trkpt lat="49.71902" lon="1.35095">
        <ele>226.871674</ele>
      </trkpt>
      <trkpt lat="49.71913" lon="1.35152">
        <ele>227.003708</ele>
      </trkpt>
      <trkpt lat="49.71923" lon="1.35251">
        <ele>228</ele>
      </trkpt>
      <trkpt lat="49.71923" lon="1.35403">
        <ele>227.752502</ele>
        <time>2010-01-01T02:00:02Z</time>
      </trkpt>
      <trkpt lat="49.71921" lon="1.35474">
        <ele>227.046173</ele>
      </trkpt>
      <trkpt lat="49.71927" lon="1.35541">
        <ele>225.631256</ele>
      </trkpt>
      <trkpt lat="49.71919" lon="1.35573">
        <ele>225.172501</ele>
      </trkpt>
      <trkpt lat="49.71933" lon="1.35607">
        <ele>224.339996</ele>
      </trkpt>
      <trkpt lat="49.71953" lon="1.3567">
        <ele>222.331497</ele>
      </trkpt>
      <trkpt lat="49.72009" lon="1.35754">
        <ele>218.720551</ele>
      </trkpt>
      <trkpt lat="49.72049" lon="1.3579">
        <ele>218.75293</ele>
      </trkpt>
      <trkpt lat="49.72076" lon="1.35824">
        <ele>219.03743</ele>
      </trkpt>
      <trkpt lat="49.7209" lon="1.35849">
        <ele>219.468704</ele>
      </trkpt>
      <trkpt lat="49.72145" lon="1.35993">
        <ele>221.001755</ele>
      </trkpt>
      <trkpt lat="49.72168" lon="1.36028">
        <ele>219.130005</ele>
      </trkpt>
      <trkpt lat="49.7218" lon="1.36042">
        <ele>218.309998</ele>
      </trkpt>
      <trkpt lat="49.72228" lon="1.36078">
        <ele>215</ele>
      </trkpt>
      <trkpt lat="49.72276" lon="1.36087">
        <ele>214</ele>
      </trkpt>
      <trkpt lat="49.72322" lon="1.36173">
        <ele>200</ele>
      </trkpt>
      <trkpt lat="49.72371" lon="1.362">
        <ele>185.964218</ele>
      </trkpt>
      <trkpt lat="49.72389" lon="1.36221">
        <ele>183.780746</ele>
      </trkpt>
      <trkpt lat="49.72401" lon="1.36245">
        <ele>181.51738</ele>
      </trkpt>
      <trkpt lat="49.72414" lon="1.36355">
        <ele>170.674911</ele>
      </trkpt>
      <trkpt lat="49.72504" lon="1.36526">
        <ele>148.728745</ele>
      </trkpt>
      <trkpt lat="49.72521" lon="1.36533">
        <ele>148.343658</ele>
      </trkpt>
      <trkpt lat="49.72539" lon="1.3655">
        <ele>147.125809</ele>
      </trkpt>
      <trkpt lat="49.72551" lon="1.36569">
        <ele>145.987457</ele>
      </trkpt>
      <trkpt lat="49.72563" lon="1.36599">
        <ele>144.119995</ele>
      </trkpt>
      <trkpt lat="49.72594" lon="1.36684">
        <ele>141.6716</ele>
      </trkpt>
      <trkpt lat="49.72645" lon="1.3682">
        <ele>137.902496</ele>
      </trkpt>
      <trkpt lat="49.72712" lon="1.37001">
        <ele>128.049225</ele>
      </trkpt>
      <trkpt lat="49.72775" lon="1.37144">
        <ele>123.443253</ele>
      </trkpt>
      <trkpt lat="49.72794" lon="1.37186">
        <ele>121.309624</ele>
      </trkpt>
      <trkpt lat="49.72805" lon="1.37285">
        <ele>115.60125</ele>
      </trkpt>
      <trkpt lat="49.72806" lon="1.37316">
        <ele>113.193748</ele>
        <time>2010-01-01T02:10:58Z</time>
      </trkpt>
      <trkpt lat="49.72807" lon="1.37462">
        <ele>105.480621</ele>
        <time>2010-01-01T02:11:36Z</time>
      </trkpt>
      <trkpt lat="49.72807" lon="1.37489">
        <ele>104.904808</ele>
      </trkpt>
      <trkpt lat="49.72803" lon="1.37512">
        <ele>104.891502</ele>
        <time>2010-01-01T02:11:49Z</time>
      </trkpt>
      <trkpt lat="49.72795" lon="1.37547">
        <ele>107.151566</ele>
      </trkpt>
      <trkpt lat="49.72805" lon="1.37589">
        <ele>110.353134</ele>
        <time>2010-01-01T02:12:10Z</time>
      </trkpt>
      <trkpt lat="49.72818" lon="1.37617">
        <ele>113.270828</ele>
        <time>2010-01-01T02:12:19Z</time>
      </trkpt>
      <trkpt lat="49.72847" lon="1.37656">
        <ele>117.361588</ele>
        <time>2010-01-01T02:12:34Z</time>
      </trkpt>
      <trkpt lat="49.729" lon="1.37705">
        <ele>121.980003</ele>
        <time>2010-01-01T02:12:59Z</time>
      </trkpt>
      <trkpt lat="49.72939" lon="1.37771">
        <ele>128.476273</ele>
        <time>2010-01-01T02:13:22Z</time>
      </trkpt>
      <trkpt lat="49.72968" lon="1.37842">
        <ele>133.361877</ele>
        <time>2010-01-01T02:13:44Z</time>
      </trkpt>
      <trkpt lat="49.72975" lon="1.37875">
        <ele>135.274994</ele>
      </trkpt>
      <trkpt lat="49.72978" lon="1.37896">
        <ele>136.400009</ele>
        <time>2010-01-01T02:13:59Z</time>
      </trkpt>
      <trkpt lat="49.72978" lon="1.37946">
        <ele>138.524994</ele>
      </trkpt>
      <trkpt lat="49.72977" lon="1.37973">
        <ele>139.342499</ele>
        <time>2010-01-01T02:14:18Z</time>
      </trkpt>
      <trkpt lat="49.72972" lon="1.38025">
        <ele>140.923599</ele>
        <time>2010-01-01T02:14:32Z</time>
      </trkpt>
      <trkpt lat="49.72949" lon="1.38134">
        <ele>140.205002</ele>
        <time>2010-01-01T02:15:02Z</time>
      </trkpt>
      <trkpt lat="49.72928" lon="1.38204">
        <ele>137.490005</ele>
        <time>2010-01-01T02:15:22Z</time>
      </trkpt>
      <trkpt lat="49.72884" lon="1.38344">
        <ele>129.565002</ele>
      </trkpt>
      <trkpt lat="49.72851" lon="1.3844">
        <ele>123.069008</ele>
        <time>2010-01-01T02:16:31Z</time>
      </trkpt>
      <trkpt lat="49.72824" lon="1.38498">
        <ele>118.589439</ele>
        <time>2010-01-01T02:16:49Z</time>
      </trkpt>
      <trkpt lat="49.72763" lon="1.38654">
        <ele>109.973648</ele>
        <time>2010-01-01T02:17:36Z</time>
      </trkpt>
      <trkpt lat="49.72762" lon="1.38731">
        <ele>109.545219</ele>
        <time>2010-01-01T02:17:56Z</time>
      </trkpt>
      <trkpt lat="49.7275" lon="1.38877">
        <ele>110.802353</ele>
        <time>2010-01-01T02:18:34Z</time>
      </trkpt>
      <trkpt lat="49.72714" lon="1.39069">
        <ele>116.084999</ele>
        <time>2010-01-01T02:19:26Z</time>
      </trkpt>
      <trkpt lat="49.72712" lon="1.39108">
        <ele>116.714996</ele>
        <time>2010-01-01T02:19:36Z</time>
      </trkpt>
      <trkpt lat="49.72712" lon="1.39141">
        <ele>116.730003</ele>
        <time>2010-01-01T02:19:45Z</time>
      </trkpt>
      <trkpt lat="49.72717" lon="1.39171">
        <ele>116.415001</ele>
        <time>2010-01-01T02:19:53Z</time>
      </trkpt>
      <trkpt lat="49.72739" lon="1.39253">
        <ele>115.842499</ele>
        <time>2010-01-01T02:20:16Z</time>
      </trkpt>
      <trkpt lat="49.7275" lon="1.3932">
        <ele>116.190002</ele>
        <time>2010-01-01T02:20:34Z</time>
      </trkpt>
      <trkpt lat="49.7275" lon="1.39359">
        <ele>116.190002</ele>
      </trkpt>
      <trkpt lat="49.72747" lon="1.39399">
        <ele>116.349998</ele>
        <time>2010-01-01T02:20:54Z</time>
      </trkpt>
      <trkpt lat="49.72737" lon="1.39506">
        <ele>116.355698</ele>
        <time>2010-01-01T02:21:22Z</time>
      </trkpt>
      <trkpt lat="49.72741" lon="1.39597">
        <ele>115.551247</ele>
      </trkpt>
      <trkpt lat="49.72739" lon="1.39655">
        <ele>114.813751</ele>
        <time>2010-01-01T02:22:01Z</time>
      </trkpt>
      <trkpt lat="49.72739" lon="1.39679">
        <ele>115.007835</ele>
      </trkpt>
      <trkpt lat="49.72814" lon="1.39974">
        <ele>108.693916</ele>
        <time>2010-01-01T02:23:30Z</time>
      </trkpt>
      <trkpt lat="49.72815" lon="1.40001">
        <ele>107.997498</ele>
        <time>2010-01-01T02:23:37Z</time>
      </trkpt>
      <trkpt lat="49.72806" lon="1.40049">
        <ele>106.614998</ele>
        <time>2010-01-01T02:23:50Z</time>
      </trkpt>
      <trkpt lat="49.72813" lon="1.40154">
        <ele>104.239655</ele>
        <time>2010-01-01T02:24:17Z</time>
      </trkpt>
      <trkpt lat="49.72825" lon="1.40282">
        <ele>98.816254</ele>
        <time>2010-01-01T02:24:51Z</time>
      </trkpt>
      <trkpt lat="49.72852" lon="1.40461">
        <ele>91.714996</ele>
        <time>2010-01-01T02:25:38Z</time>
      </trkpt>
      <trkpt lat="49.7285" lon="1.40498">
        <ele>91.080002</ele>
      </trkpt>
      <trkpt lat="49.72834" lon="1.40647">
        <ele>94.662498</ele>
      </trkpt>
      <trkpt lat="49.72826" lon="1.40686">
        <ele>95.787498</ele>
        <time>2010-01-01T02:26:38Z</time>
      </trkpt>
      <trkpt lat="49.72782" lon="1.40841">
        <ele>102.198601</ele>
      </trkpt>
      <trkpt lat="49.72751" lon="1.41136">
        <ele>107.605003</ele>
      </trkpt>
      <trkpt lat="49.72795" lon="1.41228">
        <ele>108.991074</ele>
      </trkpt>
      <trkpt lat="49.72819" lon="1.41282">
        <ele>110.70546</ele>
        <time>2010-01-01T02:29:27Z</time>
      </trkpt>
      <trkpt lat="49.7283" lon="1.41326">
        <ele>111.977203</ele>
        <time>2010-01-01T02:29:39Z</time>
      </trkpt>
      <trkpt lat="49.72819" lon="1.41362">
        <ele>110.737</ele>
        <time>2012-03-10T11:05:10Z</time>
      </trkpt>
      <trkpt lat="49.72817" lon="1.41531">
        <ele>108.073647</ele>
        <time>2012-03-10T11:05:53Z</time>
      </trkpt>
      <trkpt lat="49.72814" lon="1.41552">
        <ele>107.869316</ele>
      </trkpt>
      <trkpt lat="49.7278" lon="1.4169">
        <ele>107.058899</ele>
      </trkpt>
      <trkpt lat="49.72757" lon="1.41745">
        <ele>104.422729</ele>
      </trkpt>
      <trkpt lat="49.72749" lon="1.41812">
        <ele>100.854149</ele>
      </trkpt>
      <trkpt lat="49.72737" lon="1.41927">
        <ele>92.937187</ele>
      </trkpt>
      <trkpt lat="49.72737" lon="1.41992">
        <ele>88.258286</ele>
      </trkpt>
      <trkpt lat="49.72706" lon="1.42082">
        <ele>88.739998</ele>
        <time>2012-03-10T11:08:23Z</time>
      </trkpt>
      <trkpt lat="49.72703" lon="1.42122">
        <ele>92.474998</ele>
      </trkpt>
      <trkpt lat="49.72708" lon="1.42165">
        <ele>96.048073</ele>
      </trkpt>
      <trkpt lat="49.7272" lon="1.42229">
        <ele>101.062187</ele>
      </trkpt>
      <trkpt lat="49.72747" lon="1.4232">
        <ele>104.738121</ele>
        <time>2012-03-10T11:09:30Z</time>
      </trkpt>
      <trkpt lat="49.72813" lon="1.42432">
        <ele>105.195915</ele>
      </trkpt>
      <trkpt lat="49.7285" lon="1.42484">
        <ele>106.55175</ele>
      </trkpt>
      <trkpt lat="49.72861" lon="1.42517">
        <ele>107.839996</ele>
        <time>2012-03-10T11:10:38Z</time>
      </trkpt>
      <trkpt lat="49.72894" lon="1.42643">
        <ele>108.601059</ele>
        <time>2012-03-10T11:11:14Z</time>
      </trkpt>
      <trkpt lat="49.729" lon="1.42686">
        <ele>107.181618</ele>
      </trkpt>
      <trkpt lat="49.72919" lon="1.42708">
        <ele>106.371964</ele>
      </trkpt>
      <trkpt lat="49.72936" lon="1.4274">
        <ele>104.484657</ele>
      </trkpt>
      <trkpt lat="49.7295" lon="1.42776">
        <ele>103.221039</ele>
      </trkpt>
      <trkpt lat="49.7302" lon="1.43045">
        <ele>93.724998</ele>
      </trkpt>
      <trkpt lat="49.7303" lon="1.43099">
        <ele>91.539543</ele>
      </trkpt>
      <trkpt lat="49.73034" lon="1.43146">
        <ele>89.537834</ele>
      </trkpt>
      <trkpt lat="49.73041" lon="1.4332">
        <ele>79.415489</ele>
        <time>2012-03-10T11:14:24Z</time>
      </trkpt>
      <trkpt lat="49.72991" lon="1.43328">
        <ele>79.401802</ele>
      </trkpt>
      <trkpt lat="49.7298" lon="1.43339">
        <ele>78.956879</ele>
      </trkpt>
      <trkpt lat="49.7298" lon="1.43356">
        <ele>78.541748</ele>
      </trkpt>
      <trkpt lat="49.72998" lon="1.43411">
        <ele>77.269997</ele>
      </trkpt>
      <trkpt lat="49.72965" lon="1.43412">
        <ele>77.995003</ele>
      </trkpt>
      <trkpt lat="49.72922" lon="1.43396">
        <ele>78</ele>
      </trkpt>
      <trkpt lat="49.72897" lon="1.43372">
        <ele>78.514999</ele>
      </trkpt>
      <trkpt lat="49.72885" lon="1.43328">
        <ele>78.769997</ele>
      </trkpt>
      <trkpt lat="49.72879" lon="1.43275">
        <ele>78.330353</ele>
      </trkpt>
      <trkpt lat="49.72879" lon="1.43229">
        <ele>78.114998</ele>
      </trkpt>
      <trkpt lat="49.72857" lon="1.43149">
        <ele>78</ele>
      </trkpt>
      <trkpt lat="49.72819" lon="1.43123">
        <ele>78.410004</ele>
      </trkpt>
      <trkpt lat="49.72783" lon="1.43091">
        <ele>79.195</ele>
      </trkpt>
      <trkpt lat="49.7276" lon="1.43063">
        <ele>78.889999</ele>
      </trkpt>
      <trkpt lat="49.72718" lon="1.43042">
        <ele>79.270561</ele>
      </trkpt>
      <trkpt lat="49.72683" lon="1.43022">
        <ele>79.247749</ele>
      </trkpt>
      <trkpt lat="49.72636" lon="1.43028">
        <ele>79.657501</ele>
      </trkpt>
      <trkpt lat="49.72603" lon="1.43018">
        <ele>79.501244</ele>
      </trkpt>
      <trkpt lat="49.72565" lon="1.42994">
        <ele>79.277504</ele>
      </trkpt>
      <trkpt lat="49.72529" lon="1.42992">
        <ele>78.6306</ele>
      </trkpt>
      <trkpt lat="49.72456" lon="1.43052">
        <ele>79.644257</ele>
      </trkpt>
      <trkpt lat="49.72428" lon="1.43073">
        <ele>79.799309</ele>
      </trkpt>
      <trkpt lat="49.72392" lon="1.43082">
        <ele>80.301788</ele>
      </trkpt>
      <trkpt lat="49.72305" lon="1.43147">
        <ele>79.019997</ele>
      </trkpt>
      <trkpt lat="49.72307" lon="1.43262">
        <ele>80.028748</ele>
      </trkpt>
      <trkpt lat="49.72316" lon="1.43345">
        <ele>81.089996</ele>
      </trkpt>
      <trkpt lat="49.72346" lon="1.43457">
        <ele>82.614998</ele>
      </trkpt>
      <trkpt lat="49.72377" lon="1.43449">
        <ele>84.684998</ele>
        <time>2012-03-10T11:23:45Z</time>
      </trkpt>
      <trkpt lat="49.72394" lon="1.43453">
        <ele>85.200409</ele>
        <time>2012-03-10T11:23:52Z</time>
      </trkpt>
      <trkpt lat="49.72407" lon="1.43464">
        <ele>85.498398</ele>
        <time>2012-03-10T11:23:58Z</time>
      </trkpt>
      <trkpt lat="49.72421" lon="1.43495">
        <ele>85.908127</ele>
      </trkpt>
      <trkpt lat="49.72441" lon="1.43551">
        <ele>85.852501</ele>
      </trkpt>
      <trkpt lat="49.72459" lon="1.43583">
        <ele>85.921249</ele>
        <time>2012-03-10T11:24:35Z</time>
      </trkpt>
      <trkpt lat="49.72477" lon="1.43608">
        <ele>85.891251</ele>
      </trkpt>
      <trkpt lat="49.72503" lon="1.43631">
        <ele>85.855064</ele>
      </trkpt>
      <trkpt lat="49.72527" lon="1.43649">
        <ele>85.182503</ele>
        <time>2012-03-10T11:25:07Z</time>
      </trkpt>
      <trkpt lat="49.72556" lon="1.43686">
        <ele>84.464485</ele>
        <time>2012-03-10T11:25:22Z</time>
      </trkpt>
      <trkpt lat="49.72571" lon="1.43715">
        <ele>84.206253</ele>
        <time>2012-03-10T11:25:32Z</time>
      </trkpt>
      <trkpt lat="49.72582" lon="1.43752">
        <ele>84.327072</ele>
        <time>2012-03-10T11:25:42Z</time>
      </trkpt>
      <trkpt lat="49.7264" lon="1.43721">
        <ele>81.463402</ele>
      </trkpt>
      <trkpt lat="49.72693" lon="1.43702">
        <ele>80.110001</ele>
      </trkpt>
      <trkpt lat="49.72736" lon="1.43694">
        <ele>80</ele>
      </trkpt>
      <trkpt lat="49.72787" lon="1.43696">
        <ele>79.025002</ele>
      </trkpt>
      <trkpt lat="49.73066" lon="1.43722">
        <ele>78.63092</ele>
        <time>2012-03-10T11:28:58Z</time>
      </trkpt>
      <trkpt lat="49.73132" lon="1.4372">
        <ele>78</ele>
        <time>2012-03-10T11:29:25Z</time>
      </trkpt>
      <trkpt lat="49.73203" lon="1.43693">
        <ele>78.099998</ele>
        <time>2012-03-10T11:29:54Z</time>
      </trkpt>
      <trkpt lat="49.73246" lon="1.43668">
        <ele>78.267502</ele>
      </trkpt>
      <trkpt lat="49.73269" lon="1.4365">
        <ele>78.730003</ele>
        <time>2012-03-10T11:30:23Z</time>
      </trkpt>
      <trkpt lat="49.73304" lon="1.43616">
        <ele>79.661552</ele>
      </trkpt>
      <trkpt lat="49.73349" lon="1.43567">
        <ele>80.129997</ele>
      </trkpt>
    </trkseg>
  </trk>
</gpx>